KSPA/SPA METAR and TAF weather

Enter ICAO airport designator
Station Type Date Time Source
KSPA METAR 2021/08/04 19:15 UTC NOAA

KSPA 041915Z AUTO 00000KT 10SM BKN060 OVC075 25/16 A3005 RMK AO2


Station Type Date Time Source
KSPA Decoded METAR 2021/08/04 19:15 UTC NOAA

Spartanburg Memorial, SC, United States (KSPA) 34-55N 081-57W
Aug 04, 2021 - 03:15 PM EDT / 2021.08.04 1915 UTC
Wind: Calm:0
Visibility: 10 mile(s):0
Sky conditions: overcast
Temperature: 77 F (25 C)
Dew Point: 60 F (16 C)
Relative Humidity: 57%
Pressure (altimeter): 30.05 in. Hg (1017 hPa)
ob: KSPA 041915Z AUTO 00000KT 10SM BKN060 OVC075 25/16 A3005 RMK AO2
cycle: 19

Station Type Date Time Source
KSPA TAF UTC NOAA

Error!

Example: see airport list